Carnival Valor — H3VR — position and weather

sailwx.info

Track history (hours):
 
Tides and Currents Weather Stations Pressure Air Temp Water Temp Dewpoint Dewpoint Depression Visibility Wind Speed Wind Dir Waves Ship Positions

Carnival Valor

Last reported at 2018-Dec-13 14:00 UTC. Time now 2018-Dec-13 14:05 UTC.
Position N 21°36' W 089°35'.

Type: Ship. MMSI: 354298000.

Date/timePositionNaut miles runAvg speedWind from/ knotsBaromVisibWave heightAir tempDewpointWater temp
2018-Dec-13 14:00N 21°36' W 089°35'816.2
2018-Dec-13 13:30N 21°42' W 089°28'918.2
2018-Dec-13 13:00N 21°44' W 089°19'14812.1
2018-Dec-13 00:48N 20°35' W 086°58'516.2
2018-Dec-13 00:30N 20°31' W 087°00'3 4.8
2018-Dec-12 23:58N 20°29' W 086°59'0 0.0
2018-Dec-12 23:28N 20°29' W 086°59'0 0.0
2018-Dec-12 22:55N 20°29' W 086°59'0 0.0
2018-Dec-12 22:28N 20°29' W 086°59'0 0.0
2018-Dec-12 22:00N 20°29' W 086°59'0 0.0
2018-Dec-12 21:30N 20°29' W 086°59'0 0.0
2018-Dec-12 21:00N 20°29' W 086°59'0 0.0
2018-Dec-12 20:30N 20°29' W 086°59'0 0.0
2018-Dec-12 19:59N 20°29' W 086°59'0 0.0
2018-Dec-12 19:29N 20°29' W 086°59'0 0.0
2018-Dec-12 18:59N 20°29' W 086°59'0 0.0
2018-Dec-12 18:29N 20°29' W 086°59'0 0.0
2018-Dec-12 17:59N 20°29' W 086°59'0 0.0
2018-Dec-12 17:28N 20°29' W 086°59'0 0.0
2018-Dec-12 16:58N 20°29' W 086°59'0 0.0
2018-Dec-12 16:28N 20°29' W 086°59'0 0.0
2018-Dec-12 15:58N 20°29' W 086°59'0 0.0
2018-Dec-12 15:30N 20°29' W 086°59'0 0.0
2018-Dec-12 15:00N 20°29' W 086°59'0 0.3
2018-Dec-12 14:30N 20°29' W 086°59'3 6.9
2018-Dec-12 14:01N 20°32' W 086°60'4 7.3
2018-Dec-12 13:30N 20°35' W 086°58'18714.9
2018-Dec-12 01:00N 23°24' W 088°24'23918.4 050 / 151025.5 20.016.718.0
2018-Dec-11 12:00N 26°24' W 091°18'16020.1 010 / 181028.510.8 15.013.226.0
2018-Dec-11 04:00N 28°24' W 093°18'9317.4 020 / 181029.7 18.014.528.0
2018-Dec-10 22:40N 29°21' W 094°42'213.6
2018-Dec-10 22:30N 29°21' W 094°44'3 5.7
2018-Dec-10 22:00N 29°19' W 094°47'1 1.5
2018-Dec-10 21:28N 29°19' W 094°48'0 0.0
2018-Dec-10 21:00N 29°19' W 094°48'0 0.0
2018-Dec-10 20:30N 29°19' W 094°48'0 0.0
2018-Dec-10 20:00N 29°19' W 094°48'0 0.0
2018-Dec-10 19:30N 29°19' W 094°48'0 0.0
2018-Dec-10 19:00N 29°19' W 094°48'0 0.0
2018-Dec-10 18:29N 29°19' W 094°48'0 0.0
2018-Dec-10 17:59N 29°19' W 094°48'0 0.0
2018-Dec-10 17:29N 29°19' W 094°48'0 0.0
2018-Dec-10 16:59N 29°19' W 094°48'0 0.0
2018-Dec-10 16:29N 29°19' W 094°48'0 0.0
2018-Dec-10 15:58N 29°19' W 094°48'0 0.0
2018-Dec-10 15:28N 29°19' W 094°48'0 0.0
2018-Dec-10 14:55N 29°19' W 094°48'0 0.0
2018-Dec-10 14:28N 29°19' W 094°48'0 0.0
2018-Dec-10 14:00N 29°19' W 094°48'0 0.8
2018-Dec-10 13:30N 29°19' W 094°47'5 9.8
2018-Dec-10 13:00N 29°21' W 094°42'714.2
2018-Dec-10 12:30N 29°17' W 094°35'714.4
2018-Dec-10 12:00N 29°13' W 094°28'917.9
2018-Dec-10 11:30N 29°08' W 094°20'1217.9
2018-Dec-10 10:52N 29°01' W 094°10'819.1
2018-Dec-10 10:27N 28°56' W 094°03'919.7
2018-Dec-10 10:00N 28°51' W 093°54'1019.8
2018-Dec-10 09:30N 28°46' W 093°45'1119.8
2018-Dec-10 08:59N 28°40' W 093°35'40019.1
2018-Dec-09 12:00N 23°48' W 088°30'21118.4 010 / 281016.510.8 22.020.526.0
2018-Dec-09 00:33N 20°35' W 086°58'118.4
2018-Dec-09 00:30N 20°34' W 086°59'611.2
2018-Dec-09 00:01N 20°29' W 086°59'0 0.6
2018-Dec-08 23:30N 20°29' W 086°59'0 0.0
2018-Dec-08 22:59N 20°29' W 086°59'0 0.0
2018-Dec-08 22:26N 20°29' W 086°59'0 0.0
2018-Dec-08 21:59N 20°29' W 086°59'0 0.0
2018-Dec-08 21:29N 20°29' W 086°59'0 0.0
2018-Dec-08 20:58N 20°29' W 086°59'0 0.0
2018-Dec-08 20:30N 20°29' W 086°59'0 0.0
2018-Dec-08 20:00N 20°29' W 086°59'0 0.0
2018-Dec-08 19:30N 20°29' W 086°59'0 0.0
2018-Dec-08 19:00N 20°29' W 086°59'0 0.0
2018-Dec-08 18:30N 20°29' W 086°59'0 0.0
2018-Dec-08 18:00N 20°29' W 086°59'0 0.0
2018-Dec-08 17:30N 20°29' W 086°59'0 0.0
2018-Dec-08 17:00N 20°29' W 086°59'0 0.0
2018-Dec-08 16:30N 20°29' W 086°59'0 0.0
2018-Dec-08 16:00N 20°29' W 086°59'0 0.0
2018-Dec-08 15:30N 20°29' W 086°59'0 0.0
2018-Dec-08 15:00N 20°29' W 086°59'0 0.5
2018-Dec-08 14:30N 20°29' W 086°59'4 8.3
2018-Dec-08 14:00N 20°33' W 086°60'611.4
2018-Dec-08 13:30N 20°38' W 086°57'62917.5
2018-Dec-07 01:26N 28°55' W 094°01'1615.5
2018-Dec-07 00:23N 29°05' W 094°16'1315.4
2018-Dec-06 23:32N 29°11' W 094°30'015.9
2018-Dec-06 23:30N 29°11' W 094°30'815.3
2018-Dec-06 22:58N 29°16' W 094°37'611.0
2018-Dec-06 22:28N 29°21' W 094°42'510.0
2018-Dec-06 22:00N 29°20' W 094°47'1 2.6
2018-Dec-06 21:30N 29°19' W 094°48'0 0.0
2018-Dec-06 21:00N 29°19' W 094°48'0 0.0
2018-Dec-06 20:29N 29°19' W 094°48'0 0.0
2018-Dec-06 19:59N 29°19' W 094°48'0 0.0
2018-Dec-06 19:29N 29°19' W 094°48'0 0.0
2018-Dec-06 18:59N 29°19' W 094°48'0 0.0
2018-Dec-06 18:29N 29°19' W 094°48'0 0.0
2018-Dec-06 18:01N 29°19' W 094°48'0 0.0
2018-Dec-06 17:30N 29°19' W 094°48'0 0.0
2018-Dec-06 17:00N 29°19' W 094°48'0 0.0
2018-Dec-06 16:30N 29°19' W 094°48'0 0.0
2018-Dec-06 15:57N 29°19' W 094°48'0 0.0
2018-Dec-06 15:29N 29°19' W 094°48'0 0.0
2018-Dec-06 14:59N 29°19' W 094°48'0 0.0
2018-Dec-06 14:29N 29°19' W 094°48'0 0.0
2018-Dec-06 13:59N 29°19' W 094°48'0 0.0
2018-Dec-06 13:29N 29°19' W 094°48'1 2.2
2018-Dec-06 13:00N 29°19' W 094°47'3 6.4
2018-Dec-06 12:30N 29°21' W 094°44'713.7
2018-Dec-06 12:00N 29°18' W 094°36'11217.7
2018-Dec-06 05:40N 28°13' W 092°52'34319.4
2018-Dec-05 12:00N 23°54' W 088°42'22119.0 040 / 351020.410.8 23.021.526.0
2018-Dec-05 00:19N 20°34' W 086°59'514.5
2018-Dec-05 00:00N 20°30' W 086°60'2 3.1
2018-Dec-04 23:29N 20°29' W 086°59'0 0.0
2018-Dec-04 22:56N 20°29' W 086°59'0 0.0
2018-Dec-04 22:29N 20°29' W 086°59'0 0.0
2018-Dec-04 21:59N 20°29' W 086°59'0 0.0
2018-Dec-04 21:28N 20°29' W 086°59'0 0.0
2018-Dec-04 20:58N 20°29' W 086°59'0 0.0
2018-Dec-04 20:28N 20°29' W 086°59'0 0.0
2018-Dec-04 19:52N 20°29' W 086°59'0 0.0
2018-Dec-04 19:31N 20°29' W 086°59'0 0.0
2018-Dec-04 19:00N 20°29' W 086°59'0 0.0
2018-Dec-04 18:30N 20°29' W 086°59'0 0.0
2018-Dec-04 18:00N 20°29' W 086°59'0 0.0
2018-Dec-04 17:30N 20°29' W 086°59'0 0.0
2018-Dec-04 17:00N 20°29' W 086°59'0 0.0
2018-Dec-04 16:30N 20°29' W 086°59'0 0.0
2018-Dec-04 16:00N 20°29' W 086°59'0 0.0
2018-Dec-04 15:30N 20°29' W 086°59'0 0.0
2018-Dec-04 15:00N 20°29' W 086°59'1 1.7
2018-Dec-04 14:30N 20°29' W 086°59'3 6.3
2018-Dec-04 14:00N 20°32' W 087°00'612.2
2018-Dec-04 13:30N 20°38' W 086°57'13612.1
2018-Dec-04 02:17N 21°49' W 089°01'518.4
2018-Dec-04 02:00N 21°48' W 089°06'918.4
2018-Dec-04 01:30N 21°45' W 089°15'918.4
2018-Dec-04 01:00N 21°43' W 089°25'917.5
2018-Dec-04 00:30N 21°38' W 089°33'917.6
2018-Dec-04 00:00N 21°31' W 089°38'612.3
2018-Dec-03 23:30N 21°25' W 089°41'5 8.6
2018-Dec-03 22:58N 21°21' W 089°41'0 0.0
2018-Dec-03 22:30N 21°21' W 089°41'0 0.0
2018-Dec-03 22:00N 21°21' W 089°41'0 0.0
2018-Dec-03 21:30N 21°21' W 089°41'0 0.0
2018-Dec-03 21:00N 21°21' W 089°41'0 0.0
2018-Dec-03 20:29N 21°21' W 089°41'0 0.0
2018-Dec-03 19:59N 21°21' W 089°41'0 0.0
2018-Dec-03 19:29N 21°21' W 089°41'0 0.0
2018-Dec-03 18:59N 21°21' W 089°41'0 0.0
2018-Dec-03 18:29N 21°21' W 089°41'0 0.0
2018-Dec-03 17:58N 21°21' W 089°41'0 0.0
2018-Dec-03 17:30N 21°21' W 089°41'0 0.0
2018-Dec-03 17:00N 21°21' W 089°41'0 0.0
2018-Dec-03 16:30N 21°21' W 089°41'0 0.0
2018-Dec-03 16:00N 21°21' W 089°41'0 0.0
2018-Dec-03 15:30N 21°21' W 089°41'0 0.0
2018-Dec-03 15:00N 21°21' W 089°41'0 0.2
2018-Dec-03 14:30N 21°20' W 089°41'  
Track history (hours):
 
Tides and Currents Weather Stations Pressure Air Temp Water Temp Dewpoint Dewpoint Depression Visibility Wind Speed Wind Dir Waves Ship Positions

Carnival Valor

Last reported at 2018-Dec-13 14:00 UTC. Time now 2018-Dec-13 14:05 UTC.
Position N 21°36' W 089°35'.

Type: Ship. MMSI: 354298000.

Date/timePositionNaut miles runAvg speedWind from/ knotsBaromVisibWave heightAir tempDewpointWater temp
2018-Dec-13 14:00N 21°36' W 089°35'816.2
2018-Dec-13 13:30N 21°42' W 089°28'918.2
2018-Dec-13 13:00N 21°44' W 089°19'14812.1
2018-Dec-13 00:48N 20°35' W 086°58'516.2
2018-Dec-13 00:30N 20°31' W 087°00'3 4.8
2018-Dec-12 23:58N 20°29' W 086°59'0 0.0
2018-Dec-12 23:28N 20°29' W 086°59'0 0.0
2018-Dec-12 22:55N 20°29' W 086°59'0 0.0
2018-Dec-12 22:28N 20°29' W 086°59'0 0.0
2018-Dec-12 22:00N 20°29' W 086°59'0 0.0
2018-Dec-12 21:30N 20°29' W 086°59'0 0.0
2018-Dec-12 21:00N 20°29' W 086°59'0 0.0
2018-Dec-12 20:30N 20°29' W 086°59'0 0.0
2018-Dec-12 19:59N 20°29' W 086°59'0 0.0
2018-Dec-12 19:29N 20°29' W 086°59'0 0.0
2018-Dec-12 18:59N 20°29' W 086°59'0 0.0
2018-Dec-12 18:29N 20°29' W 086°59'0 0.0
2018-Dec-12 17:59N 20°29' W 086°59'0 0.0
2018-Dec-12 17:28N 20°29' W 086°59'0 0.0
2018-Dec-12 16:58N 20°29' W 086°59'0 0.0
2018-Dec-12 16:28N 20°29' W 086°59'0 0.0
2018-Dec-12 15:58N 20°29' W 086°59'0 0.0
2018-Dec-12 15:30N 20°29' W 086°59'0 0.0
2018-Dec-12 15:00N 20°29' W 086°59'0 0.3
2018-Dec-12 14:30N 20°29' W 086°59'3 6.9
2018-Dec-12 14:01N 20°32' W 086°60'4 7.3
2018-Dec-12 13:30N 20°35' W 086°58'18714.9
2018-Dec-12 01:00N 23°24' W 088°24'23918.4 050 / 151025.5 20.016.718.0
2018-Dec-11 12:00N 26°24' W 091°18'16020.1 010 / 181028.510.8 15.013.226.0
2018-Dec-11 04:00N 28°24' W 093°18'9317.4 020 / 181029.7 18.014.528.0
2018-Dec-10 22:40N 29°21' W 094°42'213.6
2018-Dec-10 22:30N 29°21' W 094°44'3 5.7
2018-Dec-10 22:00N 29°19' W 094°47'1 1.5
2018-Dec-10 21:28N 29°19' W 094°48'0 0.0
2018-Dec-10 21:00N 29°19' W 094°48'0 0.0
2018-Dec-10 20:30N 29°19' W 094°48'0 0.0
2018-Dec-10 20:00N 29°19' W 094°48'0 0.0
2018-Dec-10 19:30N 29°19' W 094°48'0 0.0
2018-Dec-10 19:00N 29°19' W 094°48'0 0.0
2018-Dec-10 18:29N 29°19' W 094°48'0 0.0
2018-Dec-10 17:59N 29°19' W 094°48'0 0.0
2018-Dec-10 17:29N 29°19' W 094°48'0 0.0
2018-Dec-10 16:59N 29°19' W 094°48'0 0.0
2018-Dec-10 16:29N 29°19' W 094°48'0 0.0
2018-Dec-10 15:58N 29°19' W 094°48'0 0.0
2018-Dec-10 15:28N 29°19' W 094°48'0 0.0
2018-Dec-10 14:55N 29°19' W 094°48'0 0.0
2018-Dec-10 14:28N 29°19' W 094°48'0 0.0
2018-Dec-10 14:00N 29°19' W 094°48'0 0.8
2018-Dec-10 13:30N 29°19' W 094°47'5 9.8
2018-Dec-10 13:00N 29°21' W 094°42'714.2
2018-Dec-10 12:30N 29°17' W 094°35'714.4
2018-Dec-10 12:00N 29°13' W 094°28'917.9
2018-Dec-10 11:30N 29°08' W 094°20'1217.9
2018-Dec-10 10:52N 29°01' W 094°10'819.1
2018-Dec-10 10:27N 28°56' W 094°03'919.7
2018-Dec-10 10:00N 28°51' W 093°54'1019.8
2018-Dec-10 09:30N 28°46' W 093°45'1119.8
2018-Dec-10 08:59N 28°40' W 093°35'40019.1
2018-Dec-09 12:00N 23°48' W 088°30'21118.4 010 / 281016.510.8 22.020.526.0
2018-Dec-09 00:33N 20°35' W 086°58'118.4
2018-Dec-09 00:30N 20°34' W 086°59'611.2
2018-Dec-09 00:01N 20°29' W 086°59'0 0.6
2018-Dec-08 23:30N 20°29' W 086°59'0 0.0
2018-Dec-08 22:59N 20°29' W 086°59'0 0.0
2018-Dec-08 22:26N 20°29' W 086°59'0 0.0
2018-Dec-08 21:59N 20°29' W 086°59'0 0.0
2018-Dec-08 21:29N 20°29' W 086°59'0 0.0
2018-Dec-08 20:58N 20°29' W 086°59'0 0.0
2018-Dec-08 20:30N 20°29' W 086°59'0 0.0
2018-Dec-08 20:00N 20°29' W 086°59'0 0.0
2018-Dec-08 19:30N 20°29' W 086°59'0 0.0
2018-Dec-08 19:00N 20°29' W 086°59'0 0.0
2018-Dec-08 18:30N 20°29' W 086°59'0 0.0
2018-Dec-08 18:00N 20°29' W 086°59'0 0.0
2018-Dec-08 17:30N 20°29' W 086°59'0 0.0
2018-Dec-08 17:00N 20°29' W 086°59'0 0.0
2018-Dec-08 16:30N 20°29' W 086°59'0 0.0
2018-Dec-08 16:00N 20°29' W 086°59'0 0.0
2018-Dec-08 15:30N 20°29' W 086°59'0 0.0
2018-Dec-08 15:00N 20°29' W 086°59'0 0.5
2018-Dec-08 14:30N 20°29' W 086°59'4 8.3
2018-Dec-08 14:00N 20°33' W 086°60'611.4
2018-Dec-08 13:30N 20°38' W 086°57'62917.5
2018-Dec-07 01:26N 28°55' W 094°01'1615.5
2018-Dec-07 00:23N 29°05' W 094°16'1315.4
2018-Dec-06 23:32N 29°11' W 094°30'015.9
2018-Dec-06 23:30N 29°11' W 094°30'815.3
2018-Dec-06 22:58N 29°16' W 094°37'611.0
2018-Dec-06 22:28N 29°21' W 094°42'510.0
2018-Dec-06 22:00N 29°20' W 094°47'1 2.6
2018-Dec-06 21:30N 29°19' W 094°48'0 0.0
2018-Dec-06 21:00N 29°19' W 094°48'0 0.0
2018-Dec-06 20:29N 29°19' W 094°48'0 0.0
2018-Dec-06 19:59N 29°19' W 094°48'0 0.0
2018-Dec-06 19:29N 29°19' W 094°48'0 0.0
2018-Dec-06 18:59N 29°19' W 094°48'0 0.0
2018-Dec-06 18:29N 29°19' W 094°48'0 0.0
2018-Dec-06 18:01N 29°19' W 094°48'0 0.0
2018-Dec-06 17:30N 29°19' W 094°48'0 0.0
2018-Dec-06 17:00N 29°19' W 094°48'0 0.0
2018-Dec-06 16:30N 29°19' W 094°48'0 0.0
2018-Dec-06 15:57N 29°19' W 094°48'0 0.0
2018-Dec-06 15:29N 29°19' W 094°48'0 0.0
2018-Dec-06 14:59N 29°19' W 094°48'0 0.0
2018-Dec-06 14:29N 29°19' W 094°48'0 0.0
2018-Dec-06 13:59N 29°19' W 094°48'0 0.0
2018-Dec-06 13:29N 29°19' W 094°48'1 2.2
2018-Dec-06 13:00N 29°19' W 094°47'3 6.4
2018-Dec-06 12:30N 29°21' W 094°44'713.7
2018-Dec-06 12:00N 29°18' W 094°36'11217.7
2018-Dec-06 05:40N 28°13' W 092°52'34319.4
2018-Dec-05 12:00N 23°54' W 088°42'22119.0 040 / 351020.410.8 23.021.526.0
2018-Dec-05 00:19N 20°34' W 086°59'514.5
2018-Dec-05 00:00N 20°30' W 086°60'2 3.1
2018-Dec-04 23:29N 20°29' W 086°59'0 0.0
2018-Dec-04 22:56N 20°29' W 086°59'0 0.0
2018-Dec-04 22:29N 20°29' W 086°59'0 0.0
2018-Dec-04 21:59N 20°29' W 086°59'0 0.0
2018-Dec-04 21:28N 20°29' W 086°59'0 0.0
2018-Dec-04 20:58N 20°29' W 086°59'0 0.0
2018-Dec-04 20:28N 20°29' W 086°59'0 0.0
2018-Dec-04 19:52N 20°29' W 086°59'0 0.0
2018-Dec-04 19:31N 20°29' W 086°59'0 0.0
2018-Dec-04 19:00N 20°29' W 086°59'0 0.0
2018-Dec-04 18:30N 20°29' W 086°59'0 0.0
2018-Dec-04 18:00N 20°29' W 086°59'0 0.0
2018-Dec-04 17:30N 20°29' W 086°59'0 0.0
2018-Dec-04 17:00N 20°29' W 086°59'0 0.0
2018-Dec-04 16:30N 20°29' W 086°59'0 0.0
2018-Dec-04 16:00N 20°29' W 086°59'0 0.0
2018-Dec-04 15:30N 20°29' W 086°59'0 0.0
2018-Dec-04 15:00N 20°29' W 086°59'1 1.7
2018-Dec-04 14:30N 20°29' W 086°59'3 6.3
2018-Dec-04 14:00N 20°32' W 087°00'612.2
2018-Dec-04 13:30N 20°38' W 086°57'13612.1
2018-Dec-04 02:17N 21°49' W 089°01'518.4
2018-Dec-04 02:00N 21°48' W 089°06'918.4
2018-Dec-04 01:30N 21°45' W 089°15'918.4
2018-Dec-04 01:00N 21°43' W 089°25'917.5
2018-Dec-04 00:30N 21°38' W 089°33'917.6
2018-Dec-04 00:00N 21°31' W 089°38'612.3
2018-Dec-03 23:30N 21°25' W 089°41'5 8.6
2018-Dec-03 22:58N 21°21' W 089°41'0 0.0
2018-Dec-03 22:30N 21°21' W 089°41'0 0.0
2018-Dec-03 22:00N 21°21' W 089°41'0 0.0
2018-Dec-03 21:30N 21°21' W 089°41'0 0.0
2018-Dec-03 21:00N 21°21' W 089°41'0 0.0
2018-Dec-03 20:29N 21°21' W 089°41'0 0.0
2018-Dec-03 19:59N 21°21' W 089°41'0 0.0
2018-Dec-03 19:29N 21°21' W 089°41'0 0.0
2018-Dec-03 18:59N 21°21' W 089°41'0 0.0
2018-Dec-03 18:29N 21°21' W 089°41'0 0.0
2018-Dec-03 17:58N 21°21' W 089°41'0 0.0
2018-Dec-03 17:30N 21°21' W 089°41'0 0.0
2018-Dec-03 17:00N 21°21' W 089°41'0 0.0
2018-Dec-03 16:30N 21°21' W 089°41'0 0.0
2018-Dec-03 16:00N 21°21' W 089°41'0 0.0
2018-Dec-03 15:30N 21°21' W 089°41'0 0.0
2018-Dec-03 15:00N 21°21' W 089°41'0 0.2
2018-Dec-03 14:30N 21°20' W 089°41'  

Dump ship's entire track history